createdAt,value
2023-04-21T00:00:40.544Z,4.37
2023-04-21T00:05:42.908Z,4.15
2023-04-21T00:10:46.795Z,4.20
2023-04-21T00:15:48.674Z,4.13
2023-04-21T00:20:50.362Z,4.19
2023-04-21T00:25:52.440Z,4.25
2023-04-21T00:30:54.489Z,4.20
2023-04-21T00:35:59.049Z,4.15
2023-04-21T00:41:02.634Z,3.99
2023-04-21T00:46:05.292Z,3.89
2023-04-21T00:51:06.927Z,4.11
2023-04-21T00:56:10.880Z,4.22
2023-04-21T01:01:13.676Z,4.12
2023-04-21T01:06:19.864Z,3.94
2023-04-21T01:11:21.703Z,3.88
2023-04-21T01:16:24.169Z,4.03
2023-04-21T01:21:29.129Z,3.90
2023-04-21T01:26:30.850Z,3.78
2023-04-21T01:31:32.483Z,3.88
2023-04-21T01:36:36.184Z,3.68
2023-04-21T01:41:37.821Z,3.64
2023-04-21T01:46:39.478Z,3.60
2023-04-21T01:51:41.105Z,3.67
2023-04-21T01:56:42.807Z,3.54
2023-04-21T02:01:44.521Z,3.40
2023-04-21T02:06:46.327Z,3.36
2023-04-21T02:11:48.045Z,3.35
2023-04-21T02:16:49.825Z,3.31
2023-04-21T02:21:51.636Z,3.23
2023-04-21T02:26:58.282Z,3.24
2023-04-21T02:32:14.255Z,3.19
2023-04-21T02:37:21.017Z,3.22
2023-04-21T02:42:22.652Z,3.08
2023-04-21T02:47:24.350Z,3.06
2023-04-21T02:52:26.015Z,3.13
2023-04-21T02:57:27.739Z,2.90
2023-04-21T03:02:29.471Z,2.96
2023-04-21T03:07:31.240Z,3.12
2023-04-21T03:12:32.999Z,2.98
2023-04-21T03:17:34.689Z,3.01
2023-04-21T03:22:36.375Z,3.10
2023-04-21T03:27:38.110Z,3.15
2023-04-21T03:32:39.727Z,2.91
2023-04-21T03:37:41.401Z,3.01
2023-04-21T03:42:43.195Z,2.83
2023-04-21T03:47:44.873Z,2.81
2023-04-21T03:52:46.536Z,2.64
2023-04-21T03:57:48.191Z,2.72
2023-04-21T04:02:49.931Z,2.87
2023-04-21T04:07:51.726Z,2.91
2023-04-21T04:12:53.373Z,2.72
2023-04-21T04:17:55.528Z,2.83
2023-04-21T04:22:57.234Z,3.17
2023-04-21T04:27:58.861Z,3.08
2023-04-21T04:33:00.513Z,3.08
2023-04-21T04:38:02.310Z,3.19
2023-04-21T04:43:03.951Z,3.39
2023-04-21T04:48:06.120Z,3.43
2023-04-21T04:53:07.764Z,3.56
2023-04-21T04:58:09.385Z,3.82
2023-04-21T05:03:11.127Z,3.77
2023-04-21T05:08:13.281Z,4.34
2023-04-21T05:13:17.713Z,4.92
2023-04-21T05:18:19.366Z,5.27
2023-04-21T05:23:21.222Z,5.30
2023-04-21T05:28:23.274Z,6.21
2023-04-21T05:33:26.855Z,6.60
2023-04-21T05:38:28.609Z,7.48
2023-04-21T05:43:33.408Z,8.92
2023-04-21T05:48:35.457Z,9.14
2023-04-21T05:53:40.344Z,10.90
2023-04-21T05:58:42.049Z,12.13
2023-04-21T06:03:43.969Z,10.08
2023-04-21T06:08:45.749Z,10.51
2023-04-21T06:13:47.893Z,11.05
2023-04-21T06:18:49.753Z,13.54
2023-04-21T06:23:51.453Z,14.23
2023-04-21T06:28:53.176Z,14.67
2023-04-21T06:33:54.781Z,11.74
2023-04-21T06:38:56.410Z,12.56
2023-04-21T06:43:58.037Z,14.50
2023-04-21T06:48:59.663Z,16.69
2023-04-21T06:54:01.628Z,17.33
2023-04-21T06:59:03.393Z,16.07
2023-04-21T07:04:06.923Z,16.02
2023-04-21T07:09:08.856Z,17.90
2023-04-21T07:14:11.056Z,17.17
2023-04-21T07:19:12.789Z,18.32
2023-04-21T07:24:14.447Z,18.95
2023-04-21T07:29:16.243Z,19.25
2023-04-21T07:34:17.889Z,19.18
2023-04-21T07:39:19.673Z,20.39
2023-04-21T07:44:21.530Z,19.72
2023-04-21T07:49:23.481Z,23.30
2023-04-21T07:54:25.484Z,24.00
2023-04-21T07:59:27.155Z,23.48
2023-04-21T08:04:29.058Z,23.50
2023-04-21T08:09:31.102Z,24.27
2023-04-21T08:14:32.879Z,27.69
2023-04-21T08:19:34.522Z,23.79
2023-04-21T08:24:36.212Z,26.44
2023-04-21T08:29:38.082Z,24.32
2023-04-21T08:34:39.812Z,23.79
2023-04-21T08:39:41.791Z,24.43
2023-04-21T08:44:43.844Z,27.10
2023-04-21T08:49:46.242Z,28.06
2023-04-21T08:54:52.020Z,26.64
2023-04-21T08:59:55.826Z,25.54
2023-04-21T09:04:59.999Z,26.95
2023-04-21T09:10:03.409Z,27.13
2023-04-21T09:15:06.112Z,25.46
2023-04-21T09:20:16.476Z,25.10
2023-04-21T09:25:22.494Z,24.39
2023-04-21T09:30:24.511Z,25.81
2023-04-21T09:35:29.918Z,25.30
2023-04-21T09:40:31.592Z,24.98
2023-04-21T09:45:40.315Z,23.65
2023-04-21T09:51:17.345Z,24.39
2023-04-21T09:56:05.964Z,24.24
2023-04-21T10:01:09.589Z,26.36
2023-04-21T10:06:11.875Z,25.89
2023-04-21T10:11:14.754Z,28.93
2023-04-21T10:16:18.042Z,27.17
2023-04-21T10:21:22.153Z,27.16
2023-04-21T10:26:24.780Z,25.59
2023-04-21T10:31:36.712Z,24.94
2023-04-21T10:36:57.344Z,25.99
2023-04-21T10:42:23.029Z,26.20
2023-04-21T10:47:38.670Z,25.80
2023-04-21T10:52:44.664Z,27.11
2023-04-21T10:57:46.784Z,26.21
2023-04-21T11:03:03.297Z,26.15
2023-04-21T11:08:13.165Z,27.57
2023-04-21T11:13:14.838Z,24.11
2023-04-21T11:18:18.103Z,23.94
2023-04-21T11:23:19.719Z,24.56
2023-04-21T11:28:22.160Z,26.58
2023-04-21T11:33:23.848Z,24.08
2023-04-21T11:38:25.729Z,22.09
2023-04-21T11:43:27.436Z,26.34
2023-04-21T11:48:30.058Z,26.51
2023-04-21T11:53:33.018Z,25.07
2023-04-21T11:58:34.978Z,25.06
2023-04-21T12:03:37.906Z,24.94
2023-04-21T12:08:40.742Z,25.94
2023-04-21T12:13:42.409Z,23.15
2023-04-21T12:18:44.464Z,25.10
2023-04-21T12:23:46.066Z,24.48
2023-04-21T12:28:47.672Z,25.72
2023-04-21T12:33:49.366Z,24.85
2023-04-21T12:38:51.203Z,22.71
2023-04-21T12:43:52.886Z,24.19
2023-04-21T12:48:54.612Z,23.60
2023-04-21T12:53:56.262Z,23.79
2023-04-21T12:58:58.422Z,21.33
2023-04-21T13:04:00.400Z,21.81
2023-04-21T13:09:02.391Z,21.95
2023-04-21T13:14:06.753Z,21.99
2023-04-21T13:19:08.461Z,22.45
2023-04-21T13:24:14.286Z,22.84
2023-04-21T13:29:16.351Z,22.29
2023-04-21T13:34:17.967Z,22.64
2023-04-21T13:39:19.911Z,20.77
2023-04-21T13:44:21.698Z,22.17
2023-04-21T13:49:23.300Z,21.97
2023-04-21T13:54:25.657Z,21.40
2023-04-21T13:59:29.036Z,21.65
2023-04-21T14:04:31.290Z,21.05
2023-04-21T14:09:33.244Z,21.94
2023-04-21T14:14:38.606Z,21.54
2023-04-21T14:19:40.895Z,21.70
2023-04-21T14:24:42.664Z,22.11
2023-04-21T14:29:44.266Z,21.51
2023-04-21T14:34:46.443Z,20.57
2023-04-21T14:39:48.073Z,20.10
2023-04-21T14:44:49.685Z,19.95
2023-04-21T14:49:55.053Z,19.79
2023-04-21T14:54:57.066Z,20.28
2023-04-21T14:59:58.707Z,20.76
2023-04-21T15:05:01.564Z,20.90
2023-04-21T15:10:03.585Z,21.23
2023-04-21T15:15:06.719Z,21.15
2023-04-21T15:20:10.217Z,20.78
2023-04-21T15:25:11.934Z,20.21
2023-04-21T15:30:14.037Z,19.88
2023-04-21T15:35:15.674Z,19.89
2023-04-21T15:40:17.303Z,19.67
2023-04-21T15:45:18.991Z,19.44
2023-04-21T15:50:20.747Z,19.54
2023-04-21T15:55:23.115Z,19.87
2023-04-21T16:00:24.819Z,20.13
2023-04-21T16:05:29.140Z,20.20
2023-04-21T16:10:31.303Z,20.45
2023-04-21T16:15:33.052Z,20.48
2023-04-21T16:20:36.086Z,20.34
2023-04-21T16:25:38.032Z,19.85
2023-04-21T16:30:43.642Z,19.51
2023-04-21T16:35:46.010Z,19.07
2023-04-21T16:40:47.956Z,18.90
2023-04-21T16:45:49.687Z,18.91
2023-04-21T16:50:53.875Z,18.91
2023-04-21T16:55:55.816Z,18.91
2023-04-21T17:00:57.639Z,18.81
2023-04-21T17:05:59.400Z,18.67
2023-04-21T17:11:01.133Z,18.55
2023-04-21T17:16:03.028Z,18.44
2023-04-21T17:21:06.295Z,18.29
2023-04-21T17:26:09.419Z,18.08
2023-04-21T17:31:16.161Z,17.93
2023-04-21T17:36:18.605Z,17.85
2023-04-21T17:41:20.252Z,17.63
2023-04-21T17:46:24.909Z,17.41
2023-04-21T17:51:28.539Z,17.29
2023-04-21T17:56:30.206Z,17.10
2023-04-21T18:01:31.904Z,16.74
2023-04-21T18:06:34.443Z,15.86
2023-04-21T18:11:36.069Z,15.40
2023-04-21T18:16:37.777Z,15.19
2023-04-21T18:21:39.500Z,15.18
2023-04-21T18:26:41.155Z,15.26
2023-04-21T18:31:42.814Z,15.07
2023-04-21T18:36:44.472Z,14.76
2023-04-21T18:41:48.481Z,14.34
2023-04-21T18:46:50.268Z,14.11
2023-04-21T18:51:52.142Z,13.91
2023-04-21T18:56:53.862Z,13.69
2023-04-21T19:01:55.945Z,13.62
2023-04-21T19:06:57.630Z,13.62
2023-04-21T19:11:59.336Z,13.55
2023-04-21T19:17:00.961Z,13.29
2023-04-21T19:22:04.251Z,13.13
2023-04-21T19:27:06.558Z,13.13
2023-04-21T19:32:08.296Z,13.07
2023-04-21T19:37:10.160Z,13.03
2023-04-21T19:42:11.910Z,12.85
2023-04-21T19:47:13.638Z,12.72
2023-04-21T19:52:15.231Z,12.54
2023-04-21T19:57:17.551Z,12.67
2023-04-21T20:02:19.693Z,12.53
2023-04-21T20:07:21.511Z,12.43
2023-04-21T20:12:23.173Z,12.38
2023-04-21T20:17:24.878Z,12.26
2023-04-21T20:22:26.489Z,11.83
2023-04-21T20:27:28.106Z,11.55
2023-04-21T20:32:29.778Z,11.64
2023-04-21T20:37:33.580Z,11.60
2023-04-21T20:42:35.266Z,11.26
2023-04-21T20:47:37.092Z,11.08
2023-04-21T20:52:38.760Z,11.00
2023-04-21T20:57:40.405Z,10.71
2023-04-21T21:02:42.366Z,10.72
2023-04-21T21:07:44.098Z,10.52
2023-04-21T21:12:45.814Z,10.49
2023-04-21T21:17:47.507Z,10.03
2023-04-21T21:22:49.196Z,9.90
2023-04-21T21:27:50.847Z,9.96
2023-04-21T21:32:53.969Z,9.65
2023-04-21T21:37:55.626Z,9.52
2023-04-21T21:42:57.239Z,9.51
2023-04-21T21:47:58.990Z,9.51
2023-04-21T21:53:00.634Z,9.24
2023-04-21T21:58:04.021Z,9.30
2023-04-21T22:03:06.339Z,9.08
2023-04-21T22:08:08.082Z,8.95
2023-04-21T22:13:10.141Z,8.77
2023-04-21T22:18:11.783Z,8.92
2023-04-21T22:23:13.483Z,9.02
2023-04-21T22:28:15.088Z,9.03
2023-04-21T22:33:16.730Z,8.87
2023-04-21T22:38:18.394Z,8.81
2023-04-21T22:43:20.070Z,8.71
2023-04-21T22:48:21.736Z,8.53
2023-04-21T22:53:23.331Z,8.30
2023-04-21T22:58:26.302Z,8.19
2023-04-21T23:03:28.093Z,8.15
2023-04-21T23:08:30.031Z,8.07
2023-04-21T23:13:34.757Z,7.84
2023-04-21T23:18:36.438Z,7.76
2023-04-21T23:23:38.086Z,7.93
2023-04-21T23:28:39.707Z,7.83
2023-04-21T23:33:41.326Z,7.61
2023-04-21T23:38:42.955Z,7.63
2023-04-21T23:43:44.706Z,7.76
2023-04-21T23:48:46.329Z,7.76
2023-04-21T23:53:48.010Z,7.50
2023-04-21T23:58:49.768Z,7.23
